Time;durP1;ratioP1;P1;durP2;ratioP2;P2;SDS_P1;SDS_P2;PMS_P1;PMS_P2;Temp;Humidity;BMP_temperature;BMP_pressure;BME280_temperature;BME280_humidity;BME280_pressure;Samples;Min_cycle;Max_cycle;Signal;HPM_P1;HPM_P2
2023/10/09 00:03:06;;;;;;;42.58;4.07;;;;;;;;;;4895632;29;20056;-56
2023/10/09 00:05:45;;;;;;;26.95;3.67;;;;;;;;;;4880574;29;20061;-55
2023/10/09 00:08:19;;;;;;;28.83;3.65;;;;;;;;;;4893174;29;20048;-57
2023/10/09 00:10:52;;;;;;;15.07;3.03;;;;;;;;;;4894992;29;20121;-57
2023/10/09 00:13:26;;;;;;;34.85;4.07;;;;;;;;;;4879484;29;20084;-55
2023/10/09 00:15:58;;;;;;;30.42;3.95;;;;;;;;;;4879416;29;20048;-57
2023/10/09 00:18:29;;;;;;;48.25;4.30;;;;;;;;;;4879327;29;20492;-55
2023/10/09 00:21:00;;;;;;;49.42;4.97;;;;;;;;;;4895835;29;20053;-57
2023/10/09 00:23:27;;;;;;;25.17;3.47;;;;;;;;;;4894475;29;20052;-57
2023/10/09 00:26:30;;;;;;;29.77;4.25;;;;;;;;;;4875589;29;20052;-54
2023/10/09 00:28:51;;;;;;;19.30;3.40;;;;;;;;;;4888281;29;20415;-55
2023/10/09 00:31:33;;;;;;;39.55;4.30;;;;;;;;;;4878744;29;20052;-56
2023/10/09 00:34:07;;;;;;;32.03;4.18;;;;;;;;;;4876796;29;20111;-54
2023/10/09 00:36:49;;;;;;;41.55;4.82;;;;;;;;;;4888752;29;20143;-61
2023/10/09 00:39:22;;;;;;;76.47;6.43;;;;;;;;;;4934756;29;20067;-56
2023/10/09 00:41:49;;;;;;;31.00;4.43;;;;;;;;;;4934563;29;20442;-55
2023/10/09 00:44:16;;;;;;;29.67;4.65;;;;;;;;;;4934534;29;20055;-55
2023/10/09 00:46:43;;;;;;;24.58;3.08;;;;;;;;;;4933182;29;20044;-52
2023/10/09 00:49:10;;;;;;;32.97;3.95;;;;;;;;;;4932894;29;20040;-54
2023/10/09 00:51:40;;;;;;;49.60;4.68;;;;;;;;;;4933250;29;20040;-57
2023/10/09 00:54:13;;;;;;;40.00;4.28;;;;;;;;;;4933555;29;20075;-56
2023/10/09 00:56:43;;;;;;;22.17;4.70;;;;;;;;;;4949682;29;20421;-59
2023/10/09 00:59:20;;;;;;;27.17;3.50;;;;;;;;;;4934073;29;20059;-56
2023/10/09 01:02:04;;;;;;;20.80;3.42;;;;;;;;;;4933842;29;20139;-52
2023/10/09 01:04:36;;;;;;;18.77;3.42;;;;;;;;;;4934475;29;20052;-56
2023/10/09 01:07:10;;;;;;;30.50;3.72;;;;;;;;;;4933048;29;20063;-49
2023/10/09 01:09:43;;;;;;;28.67;3.50;;;;;;;;;;4932865;29;20130;-51
2023/10/09 01:12:19;;;;;;;59.80;5.82;;;;;;;;;;4946802;29;20480;-58
2023/10/09 01:14:52;;;;;;;29.85;3.90;;;;;;;;;;4934588;29;20039;-52
2023/10/09 01:17:35;;;;;;;;;;;;;;;;;;4933449;29;20728;-57
2023/10/09 01:20:16;;;;;;;37.10;4.25;;;;;;;;;;4931185;29;19926;-49
2023/10/09 01:22:46;;;;;;;30.80;3.72;;;;;;;;;;4932469;29;20138;-55
2023/10/09 01:25:13;;;;;;;50.35;4.90;;;;;;;;;;4916569;29;20417;-55
2023/10/09 01:27:40;;;;;;;32.25;4.55;;;;;;;;;;4934116;29;20071;-57
2023/10/09 01:30:10;;;;;;;30.13;3.60;;;;;;;;;;4948670;29;20082;-61
2023/10/09 01:32:37;;;;;;;33.72;3.83;;;;;;;;;;4941202;29;20060;-53
2023/10/09 01:35:20;;;;;;;33.00;3.97;;;;;;;;;;4948226;28;20043;-55
2023/10/09 01:37:50;;;;;;;48.72;4.97;;;;;;;;;;4945252;29;20142;-57
2023/10/09 01:40:35;;;;;;;38.08;5.15;;;;;;;;;;4932538;29;20063;-51
2023/10/09 01:43:03;;;;;;;44.25;4.70;;;;;;;;;;4926110;29;20405;-55
2023/10/09 01:45:41;;;;;;;24.40;3.72;;;;;;;;;;4932367;29;20047;-58
2023/10/09 01:48:11;;;;;;;55.67;5.05;;;;;;;;;;4932713;29;20047;-56
2023/10/09 01:50:41;;;;;;;29.30;3.95;;;;;;;;;;4932297;29;20408;-53
2023/10/09 01:53:08;;;;;;;56.55;5.50;;;;;;;;;;4932085;29;20072;-55
2023/10/09 01:55:39;;;;;;;33.35;4.15;;;;;;;;;;4931907;29;20078;-55
2023/10/09 01:58:23;;;;;;;30.80;3.88;;;;;;;;;;4931870;29;20107;-52
2023/10/09 02:04:12;;;;;;;22.60;3.35;;;;;;;;;;3306453;26;20047;-61
2023/10/09 02:06:40;;;;;;;51.22;4.43;;;;;;;;;;4927941;29;20500;-61
2023/10/09 02:09:07;;;;;;;21.98;3.40;;;;;;;;;;4934698;28;20111;-64
2023/10/09 02:11:39;;;;;;;36.95;4.00;;;;;;;;;;4943317;29;20413;-62
2023/10/09 02:14:18;;;;;;;24.20;3.10;;;;;;;;;;4944667;28;20043;-60
2023/10/09 02:17:08;;;;;;;23.15;3.30;;;;;;;;;;4945237;28;20039;-60
2023/10/09 02:19:35;;;;;;;20.55;3.30;;;;;;;;;;4928779;29;20050;-60
2023/10/09 02:22:19;;;;;;;27.60;3.65;;;;;;;;;;4944718;28;20161;-61
2023/10/09 02:24:50;;;;;;;27.35;4.28;;;;;;;;;;4930061;29;20063;-60
2023/10/09 02:27:43;;;;;;;68.93;6.13;;;;;;;;;;4935088;28;20505;-61
2023/10/09 02:30:19;;;;;;;55.47;5.28;;;;;;;;;;4927705;28;20059;-60
2023/10/09 02:32:52;;;;;;;28.80;4.22;;;;;;;;;;4955824;28;20052;-60
2023/10/09 02:35:28;;;;;;;22.50;4.30;;;;;;;;;;4934881;29;20047;-60
2023/10/09 02:37:57;;;;;;;58.75;6.25;;;;;;;;;;4929834;29;20301;-59
2023/10/09 02:40:32;;;;;;;37.58;5.30;;;;;;;;;;4946262;28;20047;-60
2023/10/09 02:42:58;;;;;;;29.63;4.60;;;;;;;;;;4955251;28;20134;-60
2023/10/09 02:45:25;;;;;;;61.47;6.20;;;;;;;;;;4925700;28;20051;-63
2023/10/09 02:47:55;;;;;;;38.78;5.25;;;;;;;;;;4934972;29;20420;-62
2023/10/09 02:50:23;;;;;;;30.08;5.03;;;;;;;;;;4924505;29;20052;-62
2023/10/09 02:52:59;;;;;;;31.42;4.32;;;;;;;;;;4942333;28;20126;-65
2023/10/09 02:55:27;;;;;;;36.85;5.18;;;;;;;;;;4933520;29;20405;-63
2023/10/09 02:58:07;;;;;;;47.17;4.82;;;;;;;;;;4944682;28;20039;-62
2023/10/09 03:00:36;;;;;;;41.60;5.53;;;;;;;;;;4947461;28;20090;-62
2023/10/09 03:03:06;;;;;;;42.97;5.63;;;;;;;;;;4945067;29;20056;-62
2023/10/09 03:05:33;;;;;;;31.13;5.22;;;;;;;;;;4946222;29;20071;-60
2023/10/09 03:08:00;;;;;;;48.60;5.88;;;;;;;;;;4957965;28;20059;-63
2023/10/09 03:10:26;;;;;;;50.75;6.35;;;;;;;;;;4930792;29;20509;-65
2023/10/09 03:12:54;;;;;;;46.00;6.05;;;;;;;;;;4936916;29;20409;-62
2023/10/09 03:15:21;;;;;;;86.82;8.15;;;;;;;;;;4949526;28;20438;-65
2023/10/09 03:17:48;;;;;;;40.10;5.72;;;;;;;;;;4930661;29;20493;-62
2023/10/09 03:20:17;;;;;;;35.90;5.93;;;;;;;;;;4937398;29;20050;-62
2023/10/09 03:22:45;;;;;;;27.73;4.95;;;;;;;;;;4950258;29;20051;-63
2023/10/09 03:25:12;;;;;;;35.88;5.57;;;;;;;;;;4958783;28;20395;-63
2023/10/09 03:27:44;;;;;;;28.33;5.47;;;;;;;;;;4930616;29;20050;-64
2023/10/09 03:30:17;;;;;;;63.70;7.55;;;;;;;;;;4945575;28;20040;-62
2023/10/09 03:32:44;;;;;;;26.75;5.93;;;;;;;;;;4928981;29;20054;-62
2023/10/09 03:35:16;;;;;;;35.72;6.07;;;;;;;;;;4929360;29;20043;-63
2023/10/09 03:37:43;;;;;;;36.92;5.70;;;;;;;;;;4949964;28;20043;-63
2023/10/09 03:40:17;;;;;;;22.10;5.85;;;;;;;;;;4946758;28;20503;-63
2023/10/09 03:42:44;;;;;;;37.40;5.85;;;;;;;;;;4934391;29;20065;-61
2023/10/09 03:45:24;;;;;;;47.97;6.05;;;;;;;;;;4937027;28;20066;-63
2023/10/09 03:47:58;;;;;;;26.67;5.18;;;;;;;;;;4935605;29;20099;-62
2023/10/09 03:50:37;;;;;;;31.40;5.07;;;;;;;;;;4945734;28;20051;-62
2023/10/09 03:53:07;;;;;;;63.53;7.22;;;;;;;;;;4956903;28;20059;-61
2023/10/09 03:55:34;;;;;;;29.00;5.32;;;;;;;;;;4942775;28;20031;-62
2023/10/09 03:58:01;;;;;;;33.63;4.32;;;;;;;;;;4950081;28;20054;-61
2023/10/09 04:00:28;;;;;;;47.80;5.32;;;;;;;;;;4937387;29;20099;-61
2023/10/09 04:02:57;;;;;;;29.63;4.07;;;;;;;;;;4944434;29;20056;-61
2023/10/09 04:05:24;;;;;;;38.72;4.72;;;;;;;;;;4960008;28;20055;-61
2023/10/09 04:07:53;;;;;;;53.47;6.03;;;;;;;;;;4945072;28;20047;-61
2023/10/09 04:13:10;;;;;;;34.58;5.05;;;;;;;;;;4932553;29;20047;-64
2023/10/09 04:15:37;;;;;;;30.38;5.45;;;;;;;;;;4936019;29;20039;-64
2023/10/09 04:18:05;;;;;;;26.52;4.45;;;;;;;;;;4931238;29;20079;-62
2023/10/09 04:23:05;;;;;;;44.63;5.22;;;;;;;;;;4944809;28;20048;-62
2023/10/09 04:25:41;;;;;;;20.83;3.40;;;;;;;;;;4947701;28;20110;-63
2023/10/09 04:28:09;;;;;;;33.20;4.78;;;;;;;;;;4957039;28;20056;-62
2023/10/09 04:30:40;;;;;;;25.45;4.13;;;;;;;;;;4936986;29;20544;-63
2023/10/09 04:33:11;;;;;;;36.17;4.65;;;;;;;;;;4936305;28;20055;-70
2023/10/09 04:35:38;;;;;;;45.50;5.10;;;;;;;;;;4928949;29;20142;-60
2023/10/09 04:38:05;;;;;;;33.60;5.20;;;;;;;;;;4946480;28;20079;-60
2023/10/09 04:40:48;;;;;;;38.40;4.35;;;;;;;;;;4928814;29;20040;-59
2023/10/09 04:43:21;;;;;;;29.42;4.63;;;;;;;;;;4945649;28;20094;-62
2023/10/09 04:46:07;;;;;;;46.65;4.95;;;;;;;;;;4946555;28;20042;-61
2023/10/09 04:48:38;;;;;;;37.80;4.35;;;;;;;;;;4936264;28;20055;-60
2023/10/09 04:51:21;;;;;;;24.80;4.07;;;;;;;;;;4944689;29;20051;-60
2023/10/09 04:53:59;;;;;;;21.77;4.13;;;;;;;;;;4945080;29;20055;-61
2023/10/09 04:56:31;;;;;;;31.67;5.00;;;;;;;;;;4943683;28;20461;-62
2023/10/09 04:59:03;;;;;;;33.45;4.53;;;;;;;;;;4949836;28;20052;-62
2023/10/09 05:01:36;;;;;;;36.58;5.25;;;;;;;;;;4944248;28;20520;-59
2023/10/09 05:04:39;;;;;;;27.25;4.65;;;;;;;;;;4933567;29;20146;-60
2023/10/09 05:06:56;;;;;;;29.05;4.82;;;;;;;;;;4935129;29;20134;-60
2023/10/09 05:09:23;;;;;;;65.88;6.70;;;;;;;;;;4926978;28;20062;-63
2023/10/09 05:14:26;;;;;;;26.85;4.63;;;;;;;;;;4961822;28;20146;-62
2023/10/09 05:16:54;;;;;;;35.17;4.70;;;;;;;;;;4948328;28;20091;-60
2023/10/09 05:19:41;;;;;;;43.95;5.05;;;;;;;;;;4935898;29;20051;-59
2023/10/09 05:22:36;;;;;;;17.58;3.83;;;;;;;;;;4942961;28;20051;-60
2023/10/09 05:25:30;;;;;;;31.63;4.57;;;;;;;;;;4924835;29;20047;-59
2023/10/09 05:27:54;;;;;;;26.50;3.95;;;;;;;;;;4936042;29;20066;-58
2023/10/09 05:30:27;;;;;;;91.15;7.45;;;;;;;;;;4919186;28;20051;-61
2023/10/09 05:33:27;;;;;;;43.38;5.03;;;;;;;;;;4928723;29;20055;-60
2023/10/09 05:36:05;;;;;;;34.70;4.97;;;;;;;;;;4946429;29;20047;-61
2023/10/09 05:38:35;;;;;;;49.53;20.38;;;;;;;;;;4946246;28;20051;-60
2023/10/09 05:41:31;;;;;;;25.23;5.82;;;;;;;;;;4939668;29;20047;-60
2023/10/09 05:46:48;;;;;;;27.85;4.47;;;;;;;;;;4944959;28;20098;-59
2023/10/09 05:49:24;;;;;;;40.08;4.45;;;;;;;;;;4925684;29;20056;-60
2023/10/09 05:52:27;;;;;;;56.83;6.32;;;;;;;;;;4926617;29;20529;-59
2023/10/09 06:06:01;;;;;;;44.65;7.78;;;;;;;;;;4946107;29;20043;-61
2023/10/09 06:09:10;;;;;;;45.17;8.23;;;;;;;;;;4947491;28;20067;-59
2023/10/09 06:14:12;;;;;;;32.67;6.82;;;;;;;;;;4955555;28;20129;-59
2023/10/09 06:19:26;;;;;;;49.25;8.00;;;;;;;;;;4940700;29;20103;-59
2023/10/09 06:24:42;;;;;;;44.15;7.30;;;;;;;;;;4927332;29;20051;-59
2023/10/09 06:34:51;;;;;;;32.20;5.32;;;;;;;;;;4941395;28;20409;-59
2023/10/09 06:41:01;;;;;;;68.28;7.43;;;;;;;;;;4949915;28;20016;-59
2023/10/09 06:45:17;;;;;;;32.38;5.55;;;;;;;;;;4948338;29;20079;-59
2023/10/09 06:53:20;;;;;;;25.38;5.50;;;;;;;;;;4957732;28;20052;-60
2023/10/09 06:55:52;;;;;;;34.60;6.03;;;;;;;;;;4926752;29;20071;-59
2023/10/09 06:58:28;;;;;;;39.40;6.03;;;;;;;;;;4947080;28;20127;-60
2023/10/09 07:03:36;;;;;;;78.63;8.48;;;;;;;;;;4942739;28;20134;-60
2023/10/09 07:06:23;;;;;;;30.15;4.85;;;;;;;;;;4937480;29;20055;-59
2023/10/09 07:09:15;;;;;;;57.72;6.60;;;;;;;;;;4944288;29;20048;-60
2023/10/09 07:14:32;;;;;;;33.40;5.82;;;;;;;;;;4950989;28;20417;-61
2023/10/09 07:17:00;;;;;;;43.88;6.65;;;;;;;;;;4949054;29;20456;-61
2023/10/09 07:20:08;;;;;;;34.08;5.35;;;;;;;;;;4947316;28;20050;-60
2023/10/09 07:24:56;;;;;;;36.42;5.68;;;;;;;;;;4949599;28;20090;-60
2023/10/09 07:27:43;;;;;;;75.68;8.27;;;;;;;;;;4946114;28;20054;-60
2023/10/09 07:38:19;;;;;;;27.13;6.28;;;;;;;;;;4929729;28;20502;-60
2023/10/09 07:40:56;;;;;;;22.95;5.00;;;;;;;;;;4926408;29;20043;-62
2023/10/09 07:43:35;;;;;;;28.20;5.20;;;;;;;;;;4956161;28;20040;-59
2023/10/09 07:51:22;;;;;;;61.15;6.90;;;;;;;;;;4947436;28;20039;-64
2023/10/09 07:56:53;;;;;;;28.85;5.75;;;;;;;;;;4924259;29;20048;-60
2023/10/09 07:59:20;;;;;;;28.58;6.22;;;;;;;;;;4932719;29;20036;-60
2023/10/09 08:01:52;;;;;;;42.85;5.68;;;;;;;;;;4926890;29;20485;-61
2023/10/09 08:04:37;;;;;;;28.17;4.70;;;;;;;;;;4937159;29;20065;-60
2023/10/09 08:07:07;;;;;;;32.78;5.10;;;;;;;;;;4945227;28;20051;-59
2023/10/09 08:18:44;;;;;;;32.65;5.03;;;;;;;;;;4946964;28;20098;-60
2023/10/09 08:23:28;;;;;;;28.40;4.85;;;;;;;;;;4957949;28;20066;-60
2023/10/09 08:26:14;;;;;;;46.97;6.40;;;;;;;;;;4951730;28;20118;-60
2023/10/09 08:28:45;;;;;;;35.72;5.50;;;;;;;;;;4943818;28;20043;-60
2023/10/09 08:31:19;;;;;;;33.97;5.00;;;;;;;;;;4925803;28;20507;-61
2023/10/09 08:33:56;;;;;;;41.67;5.55;;;;;;;;;;4945714;29;20123;-61
2023/10/09 08:36:36;;;;;;;60.65;6.82;;;;;;;;;;4945361;28;20047;-60
2023/10/09 08:42:08;;;;;;;21.73;4.53;;;;;;;;;;4865841;29;20424;-58
2023/10/09 08:44:35;;;;;;;29.45;4.57;;;;;;;;;;4864445;29;20060;-60
2023/10/09 08:47:02;;;;;;;47.22;6.20;;;;;;;;;;4853328;29;20484;-60
2023/10/09 08:49:33;;;;;;;57.38;6.22;;;;;;;;;;4866948;29;20061;-60
2023/10/09 08:52:03;;;;;;;33.75;5.15;;;;;;;;;;4850988;29;20057;-60
2023/10/09 08:54:33;;;;;;;63.08;6.68;;;;;;;;;;4865269;29;20521;-59
2023/10/09 08:57:01;;;;;;;21.85;3.53;;;;;;;;;;4863013;29;20054;-60
2023/10/09 08:59:27;;;;;;;93.85;9.00;;;;;;;;;;4864532;29;20120;-60
2023/10/09 09:01:58;;;;;;;41.13;5.95;;;;;;;;;;4864200;29;20053;-59
2023/10/09 09:04:54;;;;;;;37.97;4.82;;;;;;;;;;4861510;29;20143;-59
2023/10/09 09:07:39;;;;;;;31.02;4.97;;;;;;;;;;4856942;29;20084;-60
2023/10/09 09:10:20;;;;;;;35.22;4.72;;;;;;;;;;4861057;29;20057;-59
2023/10/09 09:12:53;;;;;;;35.25;5.07;;;;;;;;;;4854869;29;20057;-60
2023/10/09 09:15:20;;;;;;;76.18;7.15;;;;;;;;;;4879014;28;20055;-59
2023/10/09 09:17:49;;;;;;;23.92;4.50;;;;;;;;;;4947583;29;20055;-60
2023/10/09 09:20:22;;;;;;;57.45;5.95;;;;;;;;;;4948925;28;20062;-59
2023/10/09 09:22:50;;;;;;;;;;;;;;;;;;4933803;29;20490;-59
2023/10/09 09:25:18;;;;;;;16.27;3.35;;;;;;;;;;4943695;28;19923;-60
2023/10/09 09:28:09;;;;;;;38.20;5.65;;;;;;;;;;4948844;28;20049;-64
2023/10/09 09:30:37;;;;;;;70.82;6.03;;;;;;;;;;4944878;28;20071;-60
2023/10/09 09:33:20;;;;;;;32.45;3.38;;;;;;;;;;4934254;29;20055;-61
2023/10/09 09:36:02;;;;;;;25.90;3.23;;;;;;;;;;4934226;29;20137;-59
2023/10/09 09:38:41;;;;;;;26.02;3.60;;;;;;;;;;4944682;28;20056;-60
2023/10/09 09:41:09;;;;;;;32.05;3.70;;;;;;;;;;4947706;28;20051;-61
2023/10/09 09:43:40;;;;;;;31.48;4.18;;;;;;;;;;4943591;28;20043;-59
2023/10/09 09:46:07;;;;;;;15.60;2.97;;;;;;;;;;4933717;29;20047;-60
2023/10/09 09:48:39;;;;;;;34.95;4.07;;;;;;;;;;4934959;29;20101;-60
2023/10/09 09:51:08;;;;;;;31.60;3.15;;;;;;;;;;4942873;29;20039;-60
2023/10/09 09:53:35;;;;;;;43.95;4.28;;;;;;;;;;4926828;29;20051;-61
2023/10/09 09:56:03;;;;;;;31.60;3.35;;;;;;;;;;4943985;28;20561;-62
2023/10/09 09:58:42;;;;;;;21.83;2.75;;;;;;;;;;4943786;28;20074;-59
2023/10/09 10:01:17;;;;;;;28.05;3.25;;;;;;;;;;4935037;29;20111;-60
2023/10/09 10:03:49;;;;;;;40.65;3.35;;;;;;;;;;4942842;28;20075;-59
2023/10/09 10:06:19;;;;;;;27.98;3.17;;;;;;;;;;4943416;28;20061;-62
2023/10/09 10:08:50;;;;;;;7.00;1.60;;;;;;;;;;4945006;29;20126;-63
2023/10/09 10:11:40;;;;;;;26.15;2.78;;;;;;;;;;4934274;29;20051;-61
2023/10/09 10:14:11;;;;;;;17.48;2.08;;;;;;;;;;4944703;29;20047;-60
2023/10/09 10:16:58;;;;;;;15.63;2.08;;;;;;;;;;4935149;29;20051;-60
2023/10/09 10:19:25;;;;;;;35.55;3.10;;;;;;;;;;4931917;28;20103;-60
2023/10/09 10:21:54;;;;;;;26.35;2.50;;;;;;;;;;4945077;28;20031;-59
2023/10/09 10:24:51;;;;;;;47.03;3.97;;;;;;;;;;4925503;28;20130;-59
2023/10/09 10:27:45;;;;;;;23.92;2.40;;;;;;;;;;4946565;28;20043;-60
2023/10/09 10:30:12;;;;;;;18.30;1.98;;;;;;;;;;4934158;29;20052;-60
2023/10/09 10:32:51;;;;;;;19.63;2.20;;;;;;;;;;4944320;29;20505;-60
2023/10/09 10:35:32;;;;;;;57.22;5.20;;;;;;;;;;4943577;28;20048;-60
2023/10/09 10:38:11;;;;;;;33.85;2.95;;;;;;;;;;4945184;28;20066;-59
2023/10/09 10:40:38;;;;;;;28.70;2.47;;;;;;;;;;4944406;28;20047;-63
2023/10/09 10:43:31;;;;;;;22.08;2.53;;;;;;;;;;4944398;28;20401;-60
2023/10/09 10:46:13;;;;;;;26.52;2.60;;;;;;;;;;4942883;28;20048;-59
2023/10/09 10:48:46;;;;;;;26.75;2.58;;;;;;;;;;4945514;28;20441;-60
2023/10/09 10:51:14;;;;;;;25.13;2.30;;;;;;;;;;4933998;29;20458;-60
2023/10/09 10:53:52;;;;;;;27.15;2.58;;;;;;;;;;4930344;29;20282;-59
2023/10/09 10:56:24;;;;;;;19.23;2.45;;;;;;;;;;4945863;28;20067;-59
2023/10/09 11:07:06;;;;;;;42.90;3.33;;;;;;;;;;4927109;29;20054;-60
2023/10/09 11:09:57;;;;;;;71.00;5.47;;;;;;;;;;4944907;28;20051;-60
2023/10/09 11:12:37;;;;;;;80.55;5.47;;;;;;;;;;4943979;28;20063;-60
2023/10/09 11:18:05;;;;;;;29.00;3.17;;;;;;;;;;4937362;29;20055;-60
2023/10/09 11:20:33;;;;;;;25.38;2.70;;;;;;;;;;4933213;29;20043;-59
2023/10/09 11:25:49;;;;;;;21.33;2.80;;;;;;;;;;4960348;28;20389;-59
2023/10/09 11:28:27;;;;;;;16.90;2.60;;;;;;;;;;4935660;29;20060;-60
2023/10/09 11:30:55;;;;;;;21.33;2.25;;;;;;;;;;4944895;28;20047;-59
2023/10/09 11:33:22;;;;;;;58.13;4.85;;;;;;;;;;4947335;28;20091;-59
2023/10/09 11:35:59;;;;;;;41.95;4.38;;;;;;;;;;4945658;29;20485;-59
2023/10/09 11:38:28;;;;;;;54.22;4.55;;;;;;;;;;4945769;28;20044;-59
2023/10/09 11:43:51;;;;;;;32.47;2.92;;;;;;;;;;4931815;29;20477;-60
2023/10/09 11:46:11;;;;;;;51.15;4.18;;;;;;;;;;4929704;29;20099;-60
2023/10/09 11:49:13;;;;;;;32.97;3.30;;;;;;;;;;4949294;28;20047;-60
2023/10/09 11:51:37;;;;;;;69.60;4.95;;;;;;;;;;4937426;28;20630;-60
2023/10/09 11:54:08;;;;;;;22.17;2.63;;;;;;;;;;4935788;29;20079;-59
2023/10/09 11:56:35;;;;;;;23.10;2.20;;;;;;;;;;4944847;28;20051;-60
2023/10/09 11:59:04;;;;;;;25.88;3.05;;;;;;;;;;4949508;28;20114;-60
2023/10/09 12:01:35;;;;;;;21.73;2.28;;;;;;;;;;4947453;28;20047;-60
2023/10/09 12:04:02;;;;;;;27.00;2.70;;;;;;;;;;4946650;28;20437;-59
2023/10/09 12:06:32;;;;;;;58.10;4.45;;;;;;;;;;4928599;28;20134;-60
2023/10/09 12:08:59;;;;;;;17.10;2.42;;;;;;;;;;4948564;29;20048;-60
2023/10/09 12:11:28;;;;;;;26.55;3.08;;;;;;;;;;4928550;29;20054;-59
2023/10/09 12:13:57;;;;;;;33.50;3.25;;;;;;;;;;4934593;29;20491;-59
2023/10/09 12:16:27;;;;;;;39.63;3.88;;;;;;;;;;4945487;28;20474;-60
2023/10/09 12:18:55;;;;;;;44.55;3.88;;;;;;;;;;4960937;28;20055;-59
2023/10/09 12:21:23;;;;;;;56.50;4.63;;;;;;;;;;4946489;28;20494;-60
2023/10/09 12:23:50;;;;;;;18.52;2.67;;;;;;;;;;4945772;29;20509;-61
2023/10/09 12:26:16;;;;;;;26.35;3.20;;;;;;;;;;4953939;28;20051;-60
2023/10/09 12:29:01;;;;;;;42.45;4.30;;;;;;;;;;4945873;29;20126;-59
2023/10/09 12:31:33;;;;;;;18.67;2.50;;;;;;;;;;4931082;29;20052;-59
2023/10/09 12:34:03;;;;;;;25.27;2.90;;;;;;;;;;4947060;28;20043;-60
2023/10/09 12:36:30;;;;;;;61.28;4.97;;;;;;;;;;4945251;28;20505;-60
2023/10/09 12:39:01;;;;;;;34.60;3.72;;;;;;;;;;4945518;29;20568;-61
2023/10/09 12:41:33;;;;;;;32.33;3.53;;;;;;;;;;4948611;28;20051;-60
2023/10/09 12:44:01;;;;;;;25.85;3.10;;;;;;;;;;4942132;28;20138;-60
2023/10/09 12:46:32;;;;;;;28.95;3.72;;;;;;;;;;4934385;29;20058;-61
2023/10/09 12:49:01;;;;;;;28.75;3.25;;;;;;;;;;4945252;28;20044;-60
2023/10/09 12:51:30;;;;;;;55.80;4.20;;;;;;;;;;4936561;28;20066;-60
2023/10/09 12:53:57;;;;;;;33.90;2.83;;;;;;;;;;4935877;29;20143;-59
2023/10/09 12:56:32;;;;;;;32.38;3.17;;;;;;;;;;4935914;29;20390;-60
2023/10/09 12:59:00;;;;;;;25.15;2.40;;;;;;;;;;4943428;28;20048;-60
2023/10/09 13:01:42;;;;;;;41.75;3.58;;;;;;;;;;4948076;28;20055;-60
2023/10/09 13:04:15;;;;;;;22.92;2.70;;;;;;;;;;4945517;28;20126;-60
2023/10/09 13:06:46;;;;;;;61.70;5.25;;;;;;;;;;4948612;28;20049;-60
2023/10/09 13:09:14;;;;;;;22.15;2.78;;;;;;;;;;4926788;29;20193;-61
2023/10/09 13:11:48;;;;;;;35.83;3.22;;;;;;;;;;4944367;28;20152;-62
2023/10/09 13:14:21;;;;;;;;;;;;;;;;;;4933440;29;20074;-59
2023/10/09 13:16:50;;;;;;;15.25;1.80;;;;;;;;;;4947573;28;20299;-59
2023/10/09 13:19:17;;;;;;;37.90;2.92;;;;;;;;;;4927370;29;20039;-60
2023/10/09 13:21:44;;;;;;;32.67;2.97;;;;;;;;;;4946336;28;20043;-60
2023/10/09 13:24:15;;;;;;;21.80;2.58;;;;;;;;;;4945087;29;20047;-59
2023/10/09 13:26:45;;;;;;;23.30;2.67;;;;;;;;;;4946488;29;20498;-59
2023/10/09 13:29:13;;;;;;;28.38;2.83;;;;;;;;;;4928695;29;20051;-60
2023/10/09 13:31:46;;;;;;;38.30;3.53;;;;;;;;;;4945181;29;20047;-59
2023/10/09 13:34:16;;;;;;;38.60;3.65;;;;;;;;;;4943263;28;20047;-60
2023/10/09 13:36:56;;;;;;;24.65;2.78;;;;;;;;;;4935670;29;20039;-60
2023/10/09 13:39:26;;;;;;;38.08;3.20;;;;;;;;;;4944757;28;20044;-59
2023/10/09 13:42:03;;;;;;;48.65;4.07;;;;;;;;;;4926043;29;20051;-60
2023/10/09 13:44:31;;;;;;;14.13;2.60;;;;;;;;;;4945797;29;20122;-64
2023/10/09 13:47:04;;;;;;;26.60;2.97;;;;;;;;;;4939753;28;20044;-60
2023/10/09 13:49:32;;;;;;;35.20;3.58;;;;;;;;;;4947205;28;20086;-61
2023/10/09 13:52:01;;;;;;;33.50;4.28;;;;;;;;;;4943289;28;20048;-60
2023/10/09 13:54:39;;;;;;;71.00;5.75;;;;;;;;;;4942964;28;20055;-59
2023/10/09 13:57:07;;;;;;;40.97;5.07;;;;;;;;;;4960155;28;20505;-60
2023/10/09 13:59:35;;;;;;;18.38;2.97;;;;;;;;;;4924307;29;20047;-59
2023/10/09 14:02:08;;;;;;;21.73;2.92;;;;;;;;;;4956665;28;20497;-61
2023/10/09 14:04:36;;;;;;;29.08;4.13;;;;;;;;;;4928004;29;20051;-59
2023/10/09 14:07:05;;;;;;;26.45;3.15;;;;;;;;;;4937642;28;20151;-59
2023/10/09 14:09:39;;;;;;;82.03;6.00;;;;;;;;;;4944963;28;20039;-60
2023/10/09 14:12:06;;;;;;;27.08;3.38;;;;;;;;;;4944218;29;20672;-60
2023/10/09 14:14:49;;;;;;;197.60;16.63;;;;;;;;;;4925909;29;20457;-60
2023/10/09 14:17:19;;;;;;;17.38;3.10;;;;;;;;;;4932483;29;20051;-61
2023/10/09 14:19:50;;;;;;;25.10;3.13;;;;;;;;;;4925470;28;20126;-61
2023/10/09 14:22:18;;;;;;;17.10;2.90;;;;;;;;;;4945216;29;20036;-60
2023/10/09 14:24:46;;;;;;;31.55;3.47;;;;;;;;;;4943931;29;20040;-59
2023/10/09 14:27:19;;;;;;;31.63;3.80;;;;;;;;;;4944250;29;20107;-60
2023/10/09 14:29:49;;;;;;;29.05;3.25;;;;;;;;;;4941005;29;20418;-61
2023/10/09 14:32:16;;;;;;;22.75;3.08;;;;;;;;;;4943009;29;20058;-59
2023/10/09 14:34:49;;;;;;;15.55;3.25;;;;;;;;;;4932583;29;20062;-59
2023/10/09 14:37:19;;;;;;;31.05;3.92;;;;;;;;;;4927047;29;20051;-59
2023/10/09 14:39:49;;;;;;;69.55;5.78;;;;;;;;;;4942674;28;20543;-59
2023/10/09 14:42:16;;;;;;;42.03;4.63;;;;;;;;;;4943883;28;20044;-61
2023/10/09 14:44:45;;;;;;;31.42;4.03;;;;;;;;;;4944028;28;20050;-60
2023/10/09 14:47:14;;;;;;;27.75;4.40;;;;;;;;;;4932705;29;20130;-60
2023/10/09 14:49:44;;;;;;;31.60;4.25;;;;;;;;;;4958738;28;20091;-59
2023/10/09 14:52:10;;;;;;;31.38;4.20;;;;;;;;;;4947428;28;20161;-61
2023/10/09 14:54:40;;;;;;;71.35;7.07;;;;;;;;;;4946431;28;20055;-58
2023/10/09 14:57:07;;;;;;;38.40;5.38;;;;;;;;;;4929107;29;20422;-59
2023/10/09 14:59:34;;;;;;;30.23;5.68;;;;;;;;;;4950297;28;20047;-59
2023/10/09 15:02:01;;;;;;;25.65;5.35;;;;;;;;;;4946736;28;20067;-61
2023/10/09 15:04:28;;;;;;;42.67;5.78;;;;;;;;;;4950819;28;20063;-61
2023/10/09 15:06:55;;;;;;;49.33;6.18;;;;;;;;;;4944711;28;20051;-60
2023/10/09 15:09:22;;;;;;;27.30;5.55;;;;;;;;;;4946330;28;20066;-62
2023/10/09 15:11:49;;;;;;;38.17;5.53;;;;;;;;;;4959526;28;20078;-60
2023/10/09 15:14:18;;;;;;;33.22;5.25;;;;;;;;;;4951433;28;20105;-60
2023/10/09 15:16:46;;;;;;;25.98;4.78;;;;;;;;;;4944708;28;20491;-59
2023/10/09 15:19:13;;;;;;;20.70;5.13;;;;;;;;;;4951827;28;20055;-60
2023/10/09 15:21:46;;;;;;;58.30;7.63;;;;;;;;;;4961251;28;20138;-60
2023/10/09 15:24:17;;;;;;;23.23;4.95;;;;;;;;;;4946382;29;20055;-59
2023/10/09 15:26:57;;;;;;;47.83;6.78;;;;;;;;;;4931058;29;20438;-60
2023/10/09 15:29:28;;;;;;;39.05;6.20;;;;;;;;;;4960042;28;20094;-60
2023/10/09 15:31:55;;;;;;;51.15;7.65;;;;;;;;;;4942883;28;20403;-61
2023/10/09 15:34:24;;;;;;;43.78;8.15;;;;;;;;;;4945680;28;20043;-59
2023/10/09 15:36:53;;;;;;;31.42;10.02;;;;;;;;;;4946399;28;20036;-60
2023/10/09 15:39:20;;;;;;;44.28;10.27;;;;;;;;;;4944622;29;20047;-59
2023/10/09 15:41:46;;;;;;;49.53;11.90;;;;;;;;;;4952425;28;20071;-60
2023/10/09 15:44:13;;;;;;;41.58;11.63;;;;;;;;;;4950170;28;20496;-59
2023/10/09 15:46:43;;;;;;;48.47;11.50;;;;;;;;;;4930954;29;20442;-58
2023/10/09 15:49:11;;;;;;;54.22;11.32;;;;;;;;;;4941246;29;20366;-59
2023/10/09 15:51:38;;;;;;;89.32;13.35;;;;;;;;;;4932778;28;20051;-60
2023/10/09 15:54:05;;;;;;;49.75;11.15;;;;;;;;;;4947698;29;20056;-60
2023/10/09 15:56:34;;;;;;;45.97;11.05;;;;;;;;;;4946656;28;20474;-59
2023/10/09 15:59:01;;;;;;;48.10;11.00;;;;;;;;;;4935694;29;20405;-61
2023/10/09 16:01:28;;;;;;;55.47;13.30;;;;;;;;;;4959201;28;20047;-59
2023/10/09 16:03:55;;;;;;;62.22;13.15;;;;;;;;;;4948942;28;20075;-60
2023/10/09 16:06:26;;;;;;;49.05;12.02;;;;;;;;;;4958909;28;20039;-60
2023/10/09 16:08:54;;;;;;;57.33;14.00;;;;;;;;;;4946560;29;20054;-59
2023/10/09 16:11:24;;;;;;;99.40;15.43;;;;;;;;;;4946095;28;20043;-58
2023/10/09 16:13:53;;;;;;;70.05;15.18;;;;;;;;;;4935799;29;20051;-60
2023/10/09 16:16:27;;;;;;;52.38;13.98;;;;;;;;;;4944735;28;20043;-61
2023/10/09 16:18:58;;;;;;;71.07;13.95;;;;;;;;;;4949417;29;20043;-60
2023/10/09 16:21:25;;;;;;;73.65;14.55;;;;;;;;;;4944000;29;20106;-61
2023/10/09 16:23:53;;;;;;;60.67;16.05;;;;;;;;;;4945125;29;20708;-59
2023/10/09 16:26:24;;;;;;;45.60;14.38;;;;;;;;;;4944876;28;20047;-61
2023/10/09 16:28:54;;;;;;;61.25;18.25;;;;;;;;;;4958561;28;20046;-61
2023/10/09 16:31:23;;;;;;;89.20;22.88;;;;;;;;;;4945507;28;20647;-60
2023/10/09 16:33:50;;;;;;;72.97;22.50;;;;;;;;;;4943421;28;20055;-60
2023/10/09 16:36:17;;;;;;;69.72;23.67;;;;;;;;;;4959179;28;20082;-59
2023/10/09 16:38:45;;;;;;;71.47;21.08;;;;;;;;;;4943643;28;20103;-59
2023/10/09 16:41:13;;;;;;;63.28;20.77;;;;;;;;;;4925503;29;20083;-58
2023/10/09 16:43:42;;;;;;;70.90;20.40;;;;;;;;;;4934810;29;20044;-60
2023/10/09 16:46:09;;;;;;;56.17;18.48;;;;;;;;;;4944640;28;20039;-59
2023/10/09 16:48:39;;;;;;;101.63;19.60;;;;;;;;;;4936011;28;20040;-60